Time;durP1;ratioP1;P1;durP2;ratioP2;P2;SDS_P1;SDS_P2;PMS_P1;PMS_P2;Temp;Humidity;BMP_temperature;BMP_pressure;BME280_temperature;BME280_humidity;BME280_pressure;Samples;Min_cycle;Max_cycle;Signal;HPM_P1;HPM_P2
2022/07/20 00:01:50;;;;;;;4.20;3.55;;;;;;;;;;6245597;28;20065;-70
2022/07/20 00:04:52;;;;;;;5.18;3.50;;;;;;;;;;6247773;28;20045;-69
2022/07/20 00:07:54;;;;;;;7.07;3.83;;;;;;;;;;6246548;28;20054;-70
2022/07/20 00:14:15;;;;;;;5.95;3.78;;;;;;;;;;6248436;28;20344;-69
2022/07/20 00:17:18;;;;;;;8.00;3.67;;;;;;;;;;6244708;28;20337;-70
2022/07/20 00:20:20;;;;;;;;;;;;;;;;;;6247315;28;20057;-69
2022/07/20 00:23:21;;;;;;;8.38;4.00;;;;;;;;;;6250501;28;19925;-70
2022/07/20 00:26:23;;;;;;;5.60;3.97;;;;;;;;;;6248060;28;20390;-69
2022/07/20 00:29:25;;;;;;;7.13;4.05;;;;;;;;;;6249669;28;20054;-68
2022/07/20 00:32:28;;;;;;;8.57;4.53;;;;;;;;;;6253301;28;20061;-69
2022/07/20 00:35:30;;;;;;;8.55;4.05;;;;;;;;;;6252251;28;20264;-70
2022/07/20 00:38:31;;;;;;;7.85;3.80;;;;;;;;;;6252539;28;20058;-69
2022/07/20 00:41:33;;;;;;;5.07;3.70;;;;;;;;;;6250994;28;20054;-68
2022/07/20 00:44:35;;;;;;;7.55;3.80;;;;;;;;;;6250421;28;20048;-69
2022/07/20 00:47:38;;;;;;;5.03;3.97;;;;;;;;;;6245754;28;20091;-67
2022/07/20 00:50:40;;;;;;;7.65;3.47;;;;;;;;;;6248770;28;20367;-69
2022/07/20 00:53:42;;;;;;;5.28;3.70;;;;;;;;;;6249042;28;20123;-69
2022/07/20 00:56:44;;;;;;;6.25;3.40;;;;;;;;;;6252006;28;20448;-70
2022/07/20 00:59:46;;;;;;;8.10;4.40;;;;;;;;;;6250081;28;20107;-70
2022/07/20 01:02:49;;;;;;;6.85;4.38;;;;;;;;;;6250667;28;20063;-70
2022/07/20 01:05:51;;;;;;;5.75;3.60;;;;;;;;;;6245478;28;20350;-69
2022/07/20 01:08:52;;;;;;;6.20;3.72;;;;;;;;;;6253239;28;20238;-67
2022/07/20 01:11:54;;;;;;;6.50;3.75;;;;;;;;;;6250844;28;20064;-70
2022/07/20 01:14:56;;;;;;;8.60;3.80;;;;;;;;;;6248659;28;20050;-70
2022/07/20 01:17:59;;;;;;;4.28;3.58;;;;;;;;;;6248482;28;20151;-70
2022/07/20 01:21:02;;;;;;;;;;;;;;;;;;6248042;28;20052;-69
2022/07/20 01:24:04;;;;;;;;;;;;;;;;;;6248578;28;19982;-70
2022/07/20 01:27:06;;;;;;;4.68;3.25;;;;;;;;;;6248124;28;19917;-70
2022/07/20 01:30:09;;;;;;;4.57;3.13;;;;;;;;;;6244525;28;20145;-69
2022/07/20 01:33:11;;;;;;;5.95;3.85;;;;;;;;;;6244677;28;20057;-67
2022/07/20 01:36:14;;;;;;;5.35;3.63;;;;;;;;;;6247436;28;20391;-70
2022/07/20 01:39:15;;;;;;;;;;;;;;;;;;6244970;28;20057;-70
2022/07/20 01:42:17;;;;;;;6.15;3.08;;;;;;;;;;6250881;28;20016;-70
2022/07/20 01:45:19;;;;;;;3.70;3.10;;;;;;;;;;6232157;28;20046;-69
2022/07/20 01:48:21;;;;;;;6.30;3.60;;;;;;;;;;6226374;28;20046;-70
2022/07/20 01:51:24;;;;;;;7.80;3.22;;;;;;;;;;6225050;28;20050;-69
2022/07/20 01:54:25;;;;;;;;;;;;;;;;;;6230106;28;20041;-70
2022/07/20 01:57:27;;;;;;;5.38;3.00;;;;;;;;;;6223958;28;19921;-69
2022/07/20 02:00:28;;;;;;;3.30;3.00;;;;;;;;;;6227136;28;20092;-69
2022/07/20 02:03:30;;;;;;;5.60;3.20;;;;;;;;;;6229558;28;20519;-68
2022/07/20 02:06:33;;;;;;;7.07;3.20;;;;;;;;;;6221741;28;20248;-68
2022/07/20 02:09:34;;;;;;;;;;;;;;;;;;6229161;28;20124;-69
2022/07/20 02:12:37;;;;;;;8.57;3.38;;;;;;;;;;6247378;28;19924;-69
2022/07/20 02:19:00;;;;;;;5.53;3.00;;;;;;;;;;6243466;28;20049;-69
2022/07/20 02:22:03;;;;;;;7.20;3.47;;;;;;;;;;6244817;28;20236;-69
2022/07/20 02:25:04;;;;;;;;;;;;;;;;;;6247715;28;20057;-69
2022/07/20 02:28:06;;;;;;;5.57;3.20;;;;;;;;;;6248413;28;19921;-69
2022/07/20 02:31:08;;;;;;;7.43;3.00;;;;;;;;;;6245558;28;20054;-69
2022/07/20 02:34:10;;;;;;;4.20;3.53;;;;;;;;;;6246792;28;20057;-69
2022/07/20 02:37:13;;;;;;;5.55;3.30;;;;;;;;;;6248006;28;20057;-69
2022/07/20 02:40:14;;;;;;;;;;;;;;;;;;6245437;28;20244;-69
2022/07/20 02:43:16;;;;;;;4.60;2.97;;;;;;;;;;6246496;28;19916;-70
2022/07/20 02:46:17;;;;;;;8.57;3.30;;;;;;;;;;6244785;28;20053;-69
2022/07/20 02:49:19;;;;;;;4.43;3.28;;;;;;;;;;6244878;28;20045;-69
2022/07/20 02:52:22;;;;;;;4.78;3.60;;;;;;;;;;6244213;28;20045;-69
2022/07/20 02:55:24;;;;;;;;;;;;;;;;;;6242686;28;20276;-68
2022/07/20 02:58:25;;;;;;;6.50;3.35;;;;;;;;;;6247495;28;19921;-70
2022/07/20 03:01:27;;;;;;;4.75;3.58;;;;;;;;;;6242499;28;20052;-68
2022/07/20 03:04:29;;;;;;;3.92;3.22;;;;;;;;;;6243521;28;20053;-69
2022/07/20 03:07:32;;;;;;;6.28;3.65;;;;;;;;;;6244502;28;20283;-69
2022/07/20 03:10:33;;;;;;;5.78;3.55;;;;;;;;;;6243161;28;20582;-67
2022/07/20 03:13:35;;;;;;;5.78;3.95;;;;;;;;;;6245056;28;20360;-69
2022/07/20 03:16:37;;;;;;;5.55;3.28;;;;;;;;;;6246191;28;20046;-69
2022/07/20 03:19:38;;;;;;;8.75;3.97;;;;;;;;;;6242763;28;20045;-69
2022/07/20 03:22:42;;;;;;;6.80;3.90;;;;;;;;;;6241747;28;20060;-68
2022/07/20 03:25:43;;;;;;;8.05;3.95;;;;;;;;;;6242959;28;20045;-69
2022/07/20 03:28:45;;;;;;;6.47;3.90;;;;;;;;;;6248163;28;20066;-70
2022/07/20 03:31:47;;;;;;;5.22;3.70;;;;;;;;;;6243668;28;20100;-69
2022/07/20 03:34:48;;;;;;;6.25;3.63;;;;;;;;;;6243610;28;20057;-70
2022/07/20 03:37:51;;;;;;;5.28;3.85;;;;;;;;;;6243251;28;20276;-68
2022/07/20 03:40:53;;;;;;;8.57;3.92;;;;;;;;;;6242287;28;20080;-68
2022/07/20 03:43:55;;;;;;;5.53;3.78;;;;;;;;;;6244728;28;20202;-69
2022/07/20 03:46:56;;;;;;;5.88;4.15;;;;;;;;;;6241750;28;20053;-69
2022/07/20 03:49:58;;;;;;;6.80;3.90;;;;;;;;;;6246938;28;20053;-68
2022/07/20 03:53:01;;;;;;;8.70;4.25;;;;;;;;;;6240774;28;20057;-70
2022/07/20 03:56:03;;;;;;;;;;;;;;;;;;6247481;28;20053;-69
2022/07/20 03:59:04;;;;;;;4.78;3.28;;;;;;;;;;6245623;28;19931;-69
2022/07/20 04:02:06;;;;;;;9.07;4.20;;;;;;;;;;6246569;28;20096;-70
2022/07/20 04:05:09;;;;;;;6.38;4.20;;;;;;;;;;6249855;28;20391;-69
2022/07/20 04:08:12;;;;;;;7.95;3.92;;;;;;;;;;6250546;28;20360;-68
2022/07/20 04:11:13;;;;;;;8.88;4.00;;;;;;;;;;6228520;28;20049;-69
2022/07/20 04:14:15;;;;;;;7.47;4.18;;;;;;;;;;6227647;28;20285;-70
2022/07/20 04:17:17;;;;;;;8.85;4.13;;;;;;;;;;6227525;28;20050;-69
2022/07/20 04:20:18;;;;;;;6.72;4.88;;;;;;;;;;6227733;28;20092;-66
2022/07/20 04:23:21;;;;;;;6.15;3.83;;;;;;;;;;6226495;28;20045;-69
2022/07/20 04:26:23;;;;;;;10.18;4.68;;;;;;;;;;6227059;28;20072;-69
2022/07/20 04:29:25;;;;;;;13.30;4.65;;;;;;;;;;6243673;28;20058;-70
2022/07/20 04:32:26;;;;;;;20.75;4.57;;;;;;;;;;6247488;28;20049;-69
2022/07/20 04:35:28;;;;;;;11.00;4.03;;;;;;;;;;6250649;28;20133;-69
2022/07/20 04:38:31;;;;;;;4.82;3.63;;;;;;;;;;6250630;28;20395;-70
2022/07/20 04:41:32;;;;;;;;;;;;;;;;;;6247016;28;20072;-68
2022/07/20 04:44:34;;;;;;;5.97;4.00;;;;;;;;;;6247949;28;19936;-69
2022/07/20 04:47:36;;;;;;;10.70;4.75;;;;;;;;;;6247342;28;20052;-69
2022/07/20 04:50:38;;;;;;;11.90;4.00;;;;;;;;;;6248456;28;20091;-69
2022/07/20 04:53:41;;;;;;;7.80;4.00;;;;;;;;;;6251115;28;20116;-70
2022/07/20 04:56:42;;;;;;;;;;;;;;;;;;6247331;28;20205;-66
2022/07/20 04:59:44;;;;;;;5.63;3.70;;;;;;;;;;6249221;28;19933;-67
2022/07/20 05:02:45;;;;;;;6.38;3.45;;;;;;;;;;6244943;28;20060;-70
2022/07/20 05:05:47;;;;;;;10.05;3.80;;;;;;;;;;6222768;28;20738;-69
2022/07/20 05:08:50;;;;;;;6.43;3.83;;;;;;;;;;6224401;28;20045;-77
2022/07/20 05:11:51;;;;;;;;;;;;;;;;;;6226254;28;20058;-76
2022/07/20 05:14:53;;;;;;;6.40;3.67;;;;;;;;;;6225403;28;19924;-75
2022/07/20 05:17:55;;;;;;;7.65;4.05;;;;;;;;;;6225941;28;20077;-75
2022/07/20 05:20:57;;;;;;;9.07;4.03;;;;;;;;;;6223342;28;20061;-75
2022/07/20 05:24:00;;;;;;;6.57;3.85;;;;;;;;;;6222050;28;20119;-74
2022/07/20 05:27:01;;;;;;;;;;;;;;;;;;6225624;28;20072;-75
2022/07/20 05:30:04;;;;;;;6.03;3.30;;;;;;;;;;6226822;28;19917;-75
2022/07/20 05:33:06;;;;;;;7.70;3.67;;;;;;;;;;6225603;28;20049;-70
2022/07/20 05:36:08;;;;;;;7.13;4.38;;;;;;;;;;6226109;28;20053;-75
2022/07/20 05:39:11;;;;;;;6.50;3.83;;;;;;;;;;6221963;28;20064;-75
2022/07/20 05:42:13;;;;;;;;;;;;;;;;;;6246380;28;20272;-76
2022/07/20 05:45:15;;;;;;;4.93;3.50;;;;;;;;;;6248643;28;19925;-74
2022/07/20 05:48:16;;;;;;;7.80;3.60;;;;;;;;;;6245106;28;20112;-73
2022/07/20 05:51:18;;;;;;;6.63;3.90;;;;;;;;;;6249161;28;20053;-75
2022/07/20 05:54:21;;;;;;;7.97;3.30;;;;;;;;;;6246149;28;20049;-74
2022/07/20 05:57:22;;;;;;;;;;;;;;;;;;6247922;28;20054;-74
2022/07/20 06:00:24;;;;;;;9.20;4.43;;;;;;;;;;6251125;28;19936;-75
2022/07/20 06:03:26;;;;;;;9.82;3.95;;;;;;;;;;6248767;28;20131;-73
2022/07/20 06:06:27;;;;;;;6.03;3.30;;;;;;;;;;6250033;28;20063;-74
2022/07/20 06:09:30;;;;;;;7.65;3.40;;;;;;;;;;6249229;28;20095;-75
2022/07/20 06:12:32;;;;;;;5.07;3.85;;;;;;;;;;6246195;28;20048;-76
2022/07/20 06:15:34;;;;;;;7.72;3.80;;;;;;;;;;6249209;28;20111;-76
2022/07/20 06:18:35;;;;;;;8.02;3.40;;;;;;;;;;6248199;28;20050;-76
2022/07/20 06:21:37;;;;;;;9.43;3.83;;;;;;;;;;6248973;28;20049;-75
2022/07/20 06:24:40;;;;;;;4.55;3.20;;;;;;;;;;6247791;28;20297;-76
2022/07/20 06:27:42;;;;;;;;;;;;;;;;;;6243585;28;20045;-75
2022/07/20 06:30:43;;;;;;;4.50;3.38;;;;;;;;;;6245876;28;19924;-77
2022/07/20 06:33:45;;;;;;;5.30;2.97;;;;;;;;;;6247151;28;20057;-73
2022/07/20 06:36:47;;;;;;;5.18;2.90;;;;;;;;;;6245550;28;20272;-76
2022/07/20 06:39:50;;;;;;;7.30;3.17;;;;;;;;;;6242686;28;20217;-71
2022/07/20 06:42:51;;;;;;;10.30;3.10;;;;;;;;;;6245498;28;20092;-72
2022/07/20 06:45:53;;;;;;;7.80;3.38;;;;;;;;;;6248802;28;20272;-76
2022/07/20 06:48:55;;;;;;;7.38;2.85;;;;;;;;;;6241348;28;20053;-76
2022/07/20 06:51:57;;;;;;;5.22;2.53;;;;;;;;;;6245395;28;20045;-71
2022/07/20 06:55:00;;;;;;;3.80;2.17;;;;;;;;;;6246871;28;20057;-75
2022/07/20 06:58:01;;;;;;;;;;;;;;;;;;6246458;28;20064;-75
2022/07/20 07:01:03;;;;;;;8.85;2.90;;;;;;;;;;6244648;28;20285;-76
2022/07/20 07:04:04;;;;;;;4.15;1.95;;;;;;;;;;6242643;28;20053;-74
2022/07/20 07:07:06;;;;;;;8.43;2.40;;;;;;;;;;6236278;28;20053;-76
2022/07/20 07:10:10;;;;;;;3.10;2.00;;;;;;;;;;6237174;28;20045;-76
2022/07/20 07:13:12;;;;;;;5.80;2.33;;;;;;;;;;6244087;28;20364;-75
2022/07/20 07:16:14;;;;;;;6.63;2.00;;;;;;;;;;6240041;28;20062;-75
2022/07/20 07:19:15;;;;;;;5.15;1.67;;;;;;;;;;6236824;28;20048;-73
2022/07/20 07:22:17;;;;;;;2.97;1.90;;;;;;;;;;6237872;28;20072;-77
2022/07/20 07:25:20;;;;;;;3.28;1.77;;;;;;;;;;6241425;28;20052;-79
2022/07/20 07:28:22;;;;;;;4.68;2.30;;;;;;;;;;6242558;28;20045;-76
2022/07/20 07:31:23;;;;;;;3.20;2.08;;;;;;;;;;6247603;28;20046;-79
2022/07/20 07:34:25;;;;;;;6.90;2.17;;;;;;;;;;6245960;28;20045;-76
2022/07/20 07:37:27;;;;;;;5.28;2.38;;;;;;;;;;6244751;28;20344;-73
2022/07/20 07:40:30;;;;;;;8.15;2.33;;;;;;;;;;6247670;28;20240;-77
2022/07/20 07:43:32;;;;;;;3.28;1.75;;;;;;;;;;6249213;28;20076;-73
2022/07/20 07:46:33;;;;;;;5.30;1.98;;;;;;;;;;6245548;28;20061;-78
2022/07/20 07:49:35;;;;;;;10.43;4.68;;;;;;;;;;6246058;28;20049;-78
2022/07/20 07:52:37;;;;;;;4.97;2.00;;;;;;;;;;6245558;28;20050;-75
2022/07/20 07:55:41;;;;;;;8.80;2.20;;;;;;;;;;6246229;28;20054;-74
2022/07/20 07:58:42;;;;;;;5.47;2.90;;;;;;;;;;6240932;28;20050;-77
2022/07/20 08:01:44;;;;;;;3.30;1.90;;;;;;;;;;6240480;28;20061;-76
2022/07/20 08:04:45;;;;;;;6.50;2.20;;;;;;;;;;6240618;28;20271;-72
2022/07/20 08:07:47;;;;;;;2.88;1.60;;;;;;;;;;6242155;28;20253;-76
2022/07/20 08:10:50;;;;;;;5.77;2.37;;;;;;;;;;6239280;28;20095;-77
2022/07/20 08:13:53;;;;;;;3.70;1.98;;;;;;;;;;6239400;28;20058;-75
2022/07/20 08:16:55;;;;;;;2.97;1.92;;;;;;;;;;6241551;28;20054;-71
2022/07/20 08:19:56;;;;;;;4.00;1.60;;;;;;;;;;6243585;28;20056;-76
2022/07/20 08:22:58;;;;;;;3.30;2.23;;;;;;;;;;6246885;28;20480;-76
2022/07/20 08:26:01;;;;;;;3.87;1.80;;;;;;;;;;6242684;28;20100;-75
2022/07/20 08:29:03;;;;;;;5.05;1.77;;;;;;;;;;6241865;28;20096;-75
2022/07/20 08:32:05;;;;;;;2.65;1.80;;;;;;;;;;6243893;28;20064;-75
2022/07/20 08:35:08;;;;;;;3.13;1.67;;;;;;;;;;6242492;28;20053;-76
2022/07/20 08:38:10;;;;;;;5.63;2.03;;;;;;;;;;6240647;28;20943;-76
2022/07/20 08:41:13;;;;;;;;;;;;;;;;;;6240484;28;20066;-73
2022/07/20 08:44:14;;;;;;;;;;;;;;;;;;6242561;28;19916;-74
2022/07/20 08:47:16;;;;;;;3.60;1.92;;;;;;;;;;6239656;28;19929;-74
2022/07/20 08:50:22;;;;;;;6.43;2.22;;;;;;;;;;6233410;28;20054;-74
2022/07/20 08:53:23;;;;;;;5.95;2.20;;;;;;;;;;6223550;28;20333;-73
2022/07/20 08:56:26;;;;;;;2.60;2.33;;;;;;;;;;6227149;28;20053;-74
2022/07/20 08:59:28;;;;;;;4.82;2.50;;;;;;;;;;6220149;28;20119;-73
2022/07/20 09:02:30;;;;;;;4.38;2.50;;;;;;;;;;6220711;28;20100;-73
2022/07/20 09:05:33;;;;;;;6.60;2.40;;;;;;;;;;6224205;28;20057;-74
2022/07/20 09:08:35;;;;;;;7.07;2.40;;;;;;;;;;6225295;28;20057;-73
2022/07/20 09:11:38;;;;;;;8.65;2.13;;;;;;;;;;6226237;28;20049;-73
2022/07/20 09:14:43;;;;;;;6.28;2.17;;;;;;;;;;6227570;28;20151;-71
2022/07/20 09:17:44;;;;;;;3.35;2.17;;;;;;;;;;6223533;28;20050;-74
2022/07/20 09:20:48;;;;;;;3.80;2.58;;;;;;;;;;6222151;28;20053;-73
2022/07/20 09:23:54;;;;;;;6.15;2.60;;;;;;;;;;6239091;28;20057;-73
2022/07/20 09:27:05;;;;;;;4.90;2.40;;;;;;;;;;6241761;28;20057;-74
2022/07/20 09:30:10;;;;;;;4.32;2.30;;;;;;;;;;6222454;28;20068;-74
2022/07/20 09:33:11;;;;;;;5.70;2.35;;;;;;;;;;6223477;28;20064;-71
2022/07/20 09:36:13;;;;;;;8.25;2.67;;;;;;;;;;6221569;28;20057;-73
2022/07/20 09:39:15;;;;;;;;;;;;;;;;;;6221236;28;20076;-74
2022/07/20 09:42:18;;;;;;;;;;;;;;;;;;6223312;28;19948;-72
2022/07/20 09:45:22;;;;;;;4.30;2.90;;;;;;;;;;6216863;28;20228;-73
2022/07/20 09:48:24;;;;;;;4.20;2.60;;;;;;;;;;6229627;28;20060;-74
2022/07/20 09:51:27;;;;;;;7.65;2.55;;;;;;;;;;6242405;28;20092;-74
2022/07/20 09:54:29;;;;;;;6.50;2.42;;;;;;;;;;6243755;28;20276;-71
2022/07/20 09:57:32;;;;;;;4.93;2.80;;;;;;;;;;6244743;28;20049;-72
2022/07/20 10:00:34;;;;;;;6.15;2.40;;;;;;;;;;6245956;28;20053;-69
2022/07/20 10:03:37;;;;;;;3.90;2.90;;;;;;;;;;6242927;28;20384;-72
2022/07/20 10:06:44;;;;;;;12.43;3.25;;;;;;;;;;6242586;28;20069;-71
2022/07/20 10:09:46;;;;;;;7.00;2.95;;;;;;;;;;6244644;28;20045;-74
2022/07/20 10:12:49;;;;;;;7.25;4.65;;;;;;;;;;6243234;28;20057;-74
2022/07/20 10:15:57;;;;;;;4.47;3.00;;;;;;;;;;6239888;28;20256;-73
2022/07/20 10:18:59;;;;;;;6.18;3.30;;;;;;;;;;6240557;28;20230;-75
2022/07/20 10:22:01;;;;;;;6.00;2.92;;;;;;;;;;6241468;28;20179;-71
2022/07/20 10:25:17;;;;;;;8.18;4.43;;;;;;;;;;6240737;28;20260;-74
2022/07/20 10:28:33;;;;;;;7.20;3.88;;;;;;;;;;6220694;28;20050;-71
2022/07/20 10:31:49;;;;;;;2.63;2.42;;;;;;;;;;6224468;28;20217;-72
2022/07/20 10:34:54;;;;;;;8.75;5.57;;;;;;;;;;6224167;28;20046;-71
2022/07/20 10:37:56;;;;;;;5.35;3.08;;;;;;;;;;6225957;28;20056;-73
2022/07/20 10:44:30;;;;;;;4.40;2.70;;;;;;;;;;6239621;28;20268;-74
2022/07/20 10:47:43;;;;;;;3.67;2.65;;;;;;;;;;6238558;28;20065;-72
2022/07/20 10:50:46;;;;;;;6.93;3.05;;;;;;;;;;6240717;28;20049;-71
2022/07/20 10:53:47;;;;;;;6.95;2.90;;;;;;;;;;6234220;28;20156;-80
2022/07/20 10:56:49;;;;;;;4.55;2.40;;;;;;;;;;6220334;28;20058;-77
2022/07/20 11:00:04;;;;;;;6.57;2.50;;;;;;;;;;6240756;28;20064;-72
2022/07/20 11:03:14;;;;;;;5.45;2.50;;;;;;;;;;6242212;28;20508;-74
2022/07/20 11:06:18;;;;;;;5.78;2.55;;;;;;;;;;6237064;28;20045;-74
2022/07/20 11:09:20;;;;;;;6.70;3.70;;;;;;;;;;6239547;28;20050;-74
2022/07/20 11:12:26;;;;;;;3.72;2.92;;;;;;;;;;6241108;28;20064;-74
2022/07/20 11:15:43;;;;;;;7.97;3.78;;;;;;;;;;6238070;28;20340;-74
2022/07/20 11:18:45;;;;;;;6.35;3.78;;;;;;;;;;6239973;28;20240;-77
2022/07/20 11:21:47;;;;;;;7.03;2.97;;;;;;;;;;6239642;28;20141;-85
2022/07/20 11:24:55;;;;;;;4.20;2.80;;;;;;;;;;6239597;28;20049;-78
2022/07/20 11:28:00;;;;;;;5.22;2.40;;;;;;;;;;6240477;28;20144;-79
2022/07/20 11:31:07;;;;;;;8.88;8.00;;;;;;;;;;6239637;28;20088;-76
2022/07/20 11:34:08;;;;;;;5.00;2.65;;;;;;;;;;6233374;28;20391;-70
2022/07/20 11:37:10;;;;;;;4.40;2.33;;;;;;;;;;6243280;28;20060;-74
2022/07/20 11:40:17;;;;;;;5.72;2.30;;;;;;;;;;6242936;28;20042;-73
2022/07/20 11:43:18;;;;;;;3.25;2.50;;;;;;;;;;6245003;28;20061;-69
2022/07/20 11:46:24;;;;;;;3.47;2.53;;;;;;;;;;6242816;28;20355;-68
2022/07/20 11:49:26;;;;;;;7.47;2.47;;;;;;;;;;6247138;28;20113;-70
2022/07/20 11:52:38;;;;;;;3.97;2.60;;;;;;;;;;6244802;28;20041;-69
2022/07/20 11:55:39;;;;;;;3.58;2.45;;;;;;;;;;6241216;28;20060;-70
2022/07/20 11:58:42;;;;;;;4.15;2.55;;;;;;;;;;6241503;28;20046;-69
2022/07/20 12:01:45;;;;;;;3.88;2.50;;;;;;;;;;6236324;28;20049;-69
2022/07/20 12:04:47;;;;;;;3.03;2.60;;;;;;;;;;6219108;28;20061;-68
2022/07/20 12:11:13;;;;;;;6.93;2.95;;;;;;;;;;6208784;28;20056;-69
2022/07/20 12:14:26;;;;;;;4.75;2.95;;;;;;;;;;6223560;28;20233;-69
2022/07/20 12:17:30;;;;;;;4.00;2.70;;;;;;;;;;6222919;28;20108;-70
2022/07/20 12:20:32;;;;;;;3.53;2.88;;;;;;;;;;6224385;28;20058;-69
2022/07/20 12:23:34;;;;;;;4.15;2.30;;;;;;;;;;6224127;28;20092;-69
2022/07/20 12:26:37;;;;;;;6.82;2.40;;;;;;;;;;6238152;28;20104;-69
2022/07/20 12:29:38;;;;;;;2.50;2.30;;;;;;;;;;6235696;28;20049;-68
2022/07/20 12:32:41;;;;;;;4.38;2.60;;;;;;;;;;6245430;28;20057;-68
2022/07/20 12:35:44;;;;;;;6.70;2.78;;;;;;;;;;6240826;28;20095;-69
2022/07/20 12:38:46;;;;;;;2.97;2.67;;;;;;;;;;6244185;28;20299;-69
2022/07/20 12:42:08;;;;;;;3.47;2.78;;;;;;;;;;6245885;28;20061;-68
2022/07/20 12:45:10;;;;;;;6.15;2.92;;;;;;;;;;6246598;28;20095;-70
2022/07/20 12:48:13;;;;;;;5.32;2.88;;;;;;;;;;6245777;28;20278;-68
2022/07/20 12:51:16;;;;;;;5.63;3.20;;;;;;;;;;6249454;28;20291;-70
2022/07/20 12:54:18;;;;;;;3.25;2.83;;;;;;;;;;6244473;28;20126;-68
2022/07/20 12:57:20;;;;;;;3.78;2.65;;;;;;;;;;6246053;28;20085;-69
2022/07/20 13:00:22;;;;;;;4.15;3.13;;;;;;;;;;6242787;28;20049;-67
2022/07/20 13:03:25;;;;;;;3.38;2.88;;;;;;;;;;6238201;28;20068;-69
2022/07/20 13:06:27;;;;;;;3.28;2.83;;;;;;;;;;6244075;28;20053;-69
2022/07/20 13:09:29;;;;;;;4.38;2.53;;;;;;;;;;6240569;28;20061;-69
2022/07/20 13:12:31;;;;;;;6.88;3.13;;;;;;;;;;6242329;28;20398;-68
2022/07/20 13:15:32;;;;;;;5.95;3.67;;;;;;;;;;6241206;28;20112;-69
2022/07/20 13:18:35;;;;;;;6.15;3.00;;;;;;;;;;6244671;28;20049;-68
2022/07/20 13:21:37;;;;;;;5.05;2.60;;;;;;;;;;6247076;28;20226;-68
2022/07/20 13:24:39;;;;;;;5.20;2.90;;;;;;;;;;6244073;28;20053;-68
2022/07/20 13:27:40;;;;;;;5.65;3.10;;;;;;;;;;6243777;28;20146;-69
2022/07/20 13:30:43;;;;;;;3.13;2.70;;;;;;;;;;6245627;28;20064;-71
2022/07/20 13:33:46;;;;;;;5.88;2.90;;;;;;;;;;6240849;28;20111;-70
2022/07/20 13:36:47;;;;;;;5.60;3.03;;;;;;;;;;6243468;28;20076;-69
2022/07/20 13:39:49;;;;;;;4.97;3.10;;;;;;;;;;6245474;28;20088;-68
2022/07/20 13:42:51;;;;;;;7.40;4.07;;;;;;;;;;6243302;28;20049;-70
2022/07/20 13:45:52;;;;;;;8.00;3.10;;;;;;;;;;6238680;28;20049;-68
2022/07/20 13:48:58;;;;;;;6.65;3.08;;;;;;;;;;6244009;28;20052;-68
2022/07/20 13:51:59;;;;;;;4.45;2.58;;;;;;;;;;6243073;28;20053;-70
2022/07/20 13:55:02;;;;;;;5.60;3.28;;;;;;;;;;6244891;28;20053;-70
2022/07/20 13:58:04;;;;;;;5.03;2.70;;;;;;;;;;6244082;28;20066;-68
2022/07/20 14:01:07;;;;;;;3.25;2.95;;;;;;;;;;6244486;28;20061;-70
2022/07/20 14:04:11;;;;;;;3.58;2.95;;;;;;;;;;6238259;28;20053;-70
2022/07/20 14:07:13;;;;;;;4.82;3.15;;;;;;;;;;6224642;28;20114;-69
2022/07/20 14:10:15;;;;;;;6.15;3.30;;;;;;;;;;6246178;28;20287;-69
2022/07/20 14:13:16;;;;;;;6.90;3.00;;;;;;;;;;6243235;28;20061;-69
2022/07/20 14:16:18;;;;;;;5.43;3.10;;;;;;;;;;6244974;28;20057;-71
2022/07/20 14:19:21;;;;;;;3.55;3.17;;;;;;;;;;6241994;28;20103;-70
2022/07/20 14:22:23;;;;;;;5.15;3.17;;;;;;;;;;6237099;28;20062;-66
2022/07/20 14:25:24;;;;;;;6.60;3.08;;;;;;;;;;6246949;28;20283;-69
2022/07/20 14:28:26;;;;;;;6.47;3.05;;;;;;;;;;6246673;28;20107;-68
2022/07/20 14:31:28;;;;;;;5.63;3.00;;;;;;;;;;6243007;28;20053;-68
2022/07/20 14:34:31;;;;;;;4.65;3.17;;;;;;;;;;6246202;28;20065;-69
2022/07/20 14:37:33;;;;;;;4.72;3.45;;;;;;;;;;6242325;28;20103;-69
2022/07/20 14:40:34;;;;;;;5.28;3.30;;;;;;;;;;6251294;28;20045;-70
2022/07/20 14:43:36;;;;;;;4.15;3.08;;;;;;;;;;6248027;28;20049;-69
2022/07/20 14:46:38;;;;;;;4.20;2.75;;;;;;;;;;6247825;28;20049;-69
2022/07/20 14:49:41;;;;;;;5.40;3.05;;;;;;;;;;6241268;28;20088;-69
2022/07/20 14:52:43;;;;;;;6.82;2.88;;;;;;;;;;6239254;28;20048;-70
2022/07/20 14:55:46;;;;;;;3.45;2.85;;;;;;;;;;6223629;28;20050;-68
2022/07/20 14:58:48;;;;;;;3.00;2.70;;;;;;;;;;6220991;28;20096;-67
2022/07/20 15:01:49;;;;;;;;;;;;;;;;;;6224588;28;20049;-68
2022/07/20 15:04:54;;;;;;;4.53;2.90;;;;;;;;;;6213879;28;19973;-69
2022/07/20 15:07:56;;;;;;;5.13;3.10;;;;;;;;;;6220171;28;20100;-68
2022/07/20 15:10:58;;;;;;;3.42;3.13;;;;;;;;;;6225048;28;20053;-71
2022/07/20 15:13:59;;;;;;;3.65;2.78;;;;;;;;;;6237844;28;20379;-70
2022/07/20 15:17:01;;;;;;;13.32;3.75;;;;;;;;;;6230408;28;20054;-69
2022/07/20 15:20:05;;;;;;;6.25;2.63;;;;;;;;;;6223153;28;20049;-68
2022/07/20 15:23:07;;;;;;;4.25;2.70;;;;;;;;;;6222200;28;20058;-68
2022/07/20 15:26:10;;;;;;;4.93;3.22;;;;;;;;;;6222543;28;20053;-70
2022/07/20 15:29:12;;;;;;;4.60;2.90;;;;;;;;;;6226147;28;20105;-68
2022/07/20 15:32:13;;;;;;;4.13;3.17;;;;;;;;;;6217346;28;20045;-70
2022/07/20 15:35:16;;;;;;;5.95;3.03;;;;;;;;;;6220165;28;20054;-70
2022/07/20 15:38:18;;;;;;;3.35;2.70;;;;;;;;;;6218135;28;20322;-67
2022/07/20 15:41:20;;;;;;;3.65;2.80;;;;;;;;;;6216934;28;20054;-70
2022/07/20 15:44:21;;;;;;;5.78;2.67;;;;;;;;;;6215991;28;20050;-68
2022/07/20 15:47:23;;;;;;;4.15;3.00;;;;;;;;;;6233356;28;20042;-68
2022/07/20 15:50:27;;;;;;;6.70;2.78;;;;;;;;;;6211405;28;20057;-68
2022/07/20 15:53:28;;;;;;;3.25;2.67;;;;;;;;;;6229367;28;20072;-69
2022/07/20 15:59:46;;;;;;;5.13;2.75;;;;;;;;;;6222011;28;20048;-69
2022/07/20 16:02:47;;;;;;;6.15;3.10;;;;;;;;;;6222485;28;20050;-69
2022/07/20 16:05:50;;;;;;;4.80;2.88;;;;;;;;;;6221674;28;20265;-70
2022/07/20 16:08:52;;;;;;;3.15;2.70;;;;;;;;;;6220147;28;20376;-70
2022/07/20 16:11:54;;;;;;;4.75;2.63;;;;;;;;;;6223027;28;20045;-66
2022/07/20 16:20:46;;;;;;;4.22;3.00;;;;;;;;;;6359774;27;20484;-69
2022/07/20 16:23:48;;;;;;;4.55;2.88;;;;;;;;;;6330397;28;20048;-70
2022/07/20 16:26:50;;;;;;;5.47;3.30;;;;;;;;;;6307520;28;21262;-70
2022/07/20 16:29:52;;;;;;;3.90;3.22;;;;;;;;;;6317136;28;20057;-70
2022/07/20 16:32:54;;;;;;;6.60;2.80;;;;;;;;;;6315390;28;20247;-71
2022/07/20 16:35:57;;;;;;;8.63;3.08;;;;;;;;;;6313372;28;20339;-70
2022/07/20 16:38:59;;;;;;;9.32;3.33;;;;;;;;;;6315349;28;20243;-70
2022/07/20 16:42:01;;;;;;;5.18;3.03;;;;;;;;;;6336625;28;20051;-70
2022/07/20 16:45:02;;;;;;;3.72;3.13;;;;;;;;;;6339137;28;20150;-71
2022/07/20 16:48:05;;;;;;;3.53;3.08;;;;;;;;;;6339136;28;20251;-70
2022/07/20 16:51:08;;;;;;;4.13;3.13;;;;;;;;;;6344052;28;20056;-71
2022/07/20 16:54:10;;;;;;;7.13;3.17;;;;;;;;;;6335364;28;20050;-70
2022/07/20 16:57:11;;;;;;;4.50;3.47;;;;;;;;;;6337359;28;20093;-70
2022/07/20 17:00:14;;;;;;;16.55;3.28;;;;;;;;;;6336043;28;20273;-70
2022/07/20 17:03:15;;;;;;;4.63;3.42;;;;;;;;;;6335541;28;20063;-71
2022/07/20 17:06:18;;;;;;;3.50;3.20;;;;;;;;;;6331993;28;20082;-70
2022/07/20 17:09:20;;;;;;;3.85;3.00;;;;;;;;;;6332299;28;20056;-71
2022/07/20 17:12:22;;;;;;;3.35;3.05;;;;;;;;;;6331670;28;20102;-70
2022/07/20 17:15:24;;;;;;;5.32;3.13;;;;;;;;;;6333828;28;20052;-70
2022/07/20 17:18:26;;;;;;;3.33;3.03;;;;;;;;;;6334490;28;20055;-71
2022/07/20 17:21:29;;;;;;;6.05;2.80;;;;;;;;;;6333555;28;20056;-71
2022/07/20 17:24:31;;;;;;;6.55;2.80;;;;;;;;;;6333387;28;20051;-69
2022/07/20 17:27:33;;;;;;;6.53;2.70;;;;;;;;;;6336907;28;20066;-70
2022/07/20 17:30:35;;;;;;;7.28;2.90;;;;;;;;;;6324339;28;20059;-70
2022/07/20 17:33:36;;;;;;;4.78;2.53;;;;;;;;;;6310819;28;20056;-70
2022/07/20 17:36:39;;;;;;;5.60;2.70;;;;;;;;;;6313552;28;20098;-70
2022/07/20 17:39:41;;;;;;;3.05;2.85;;;;;;;;;;6310863;28;20937;-70
2022/07/20 17:42:43;;;;;;;5.73;3.00;;;;;;;;;;6312657;28;20086;-70
2022/07/20 17:45:45;;;;;;;6.05;2.60;;;;;;;;;;6310713;28;20254;-70
2022/07/20 17:48:46;;;;;;;2.87;2.57;;;;;;;;;;6313025;28;20248;-70
2022/07/20 17:51:51;;;;;;;4.93;2.70;;;;;;;;;;6311768;28;20055;-70
2022/07/20 17:54:53;;;;;;;3.60;2.60;;;;;;;;;;6311438;28;20840;-70
2022/07/20 17:57:55;;;;;;;4.63;2.78;;;;;;;;;;6312387;28;20052;-70
2022/07/20 18:00:56;;;;;;;6.20;2.33;;;;;;;;;;6312042;28;20063;-71
2022/07/20 18:03:58;;;;;;;7.67;2.77;;;;;;;;;;6310942;28;20493;-70
2022/07/20 18:07:01;;;;;;;6.05;3.17;;;;;;;;;;6312802;28;20060;-71
2022/07/20 18:10:04;;;;;;;6.13;2.90;;;;;;;;;;6311801;28;20067;-70
2022/07/20 18:13:05;;;;;;;5.82;3.15;;;;;;;;;;6312252;28;20094;-71
2022/07/20 18:16:07;;;;;;;3.83;2.73;;;;;;;;;;6311737;28;20313;-70
2022/07/20 18:19:09;;;;;;;4.53;2.78;;;;;;;;;;6311859;28;20052;-71
2022/07/20 18:22:12;;;;;;;5.40;2.73;;;;;;;;;;6310097;28;20052;-71
2022/07/20 18:25:14;;;;;;;7.32;2.80;;;;;;;;;;6309471;28;20761;-73
2022/07/20 18:28:16;;;;;;;3.97;2.78;;;;;;;;;;6312298;28;20059;-70
2022/07/20 18:31:17;;;;;;;3.85;2.67;;;;;;;;;;6312222;28;20052;-70
2022/07/20 18:34:20;;;;;;;9.53;3.23;;;;;;;;;;6317753;28;20055;-70
2022/07/20 18:37:23;;;;;;;5.63;2.85;;;;;;;;;;6318344;28;20071;-72
2022/07/20 18:40:25;;;;;;;7.55;2.72;;;;;;;;;;6316457;28;20040;-71
2022/07/20 18:43:27;;;;;;;5.85;2.97;;;;;;;;;;6316261;28;20048;-70
2022/07/20 18:46:28;;;;;;;;;;;;;;;;;;6320554;28;20341;-69